sensor_id;sensor_type;location;lat;lon;timestamp;pressure;altitude;pressure_sealevel;temperature;humidity
9077;BME280;4574;51.072;17.174;2023-08-30T00:01:08;99168.38;;;16.35;100.00
9077;BME280;4574;51.072;17.174;2023-08-30T00:03:37;99168.59;;;16.33;100.00
9077;BME280;4574;51.072;17.174;2023-08-30T00:06:07;99181.09;;;16.33;100.00
9077;BME280;4574;51.072;17.174;2023-08-30T00:08:36;99170.81;;;16.30;100.00
9077;BME280;4574;51.072;17.174;2023-08-30T00:11:04;99171.84;;;16.29;100.00
9077;BME280;4574;51.072;17.174;2023-08-30T00:13:33;99169.81;;;16.24;100.00
9077;BME280;4574;51.072;17.174;2023-08-30T00:16:01;99177.81;;;16.24;100.00
9077;BME280;4574;51.072;17.174;2023-08-30T00:18:30;99178.44;;;16.26;100.00
9077;BME280;4574;51.072;17.174;2023-08-30T00:20:59;99178.63;;;16.25;100.00
9077;BME280;4574;51.072;17.174;2023-08-30T00:23:29;99176.38;;;16.28;100.00
9077;BME280;4574;51.072;17.174;2023-08-30T00:25:57;99183.38;;;16.29;100.00
9077;BME280;4574;51.072;17.174;2023-08-30T00:28:26;99186.44;;;16.33;100.00
9077;BME280;4574;51.072;17.174;2023-08-30T00:30:54;99182.53;;;16.29;100.00
9077;BME280;4574;51.072;17.174;2023-08-30T00:33:23;99171.22;;;16.27;100.00
9077;BME280;4574;51.072;17.174;2023-08-30T00:35:58;99163.25;;;16.14;100.00
9077;BME280;4574;51.072;17.174;2023-08-30T00:38:28;99165.50;;;16.10;100.00
9077;BME280;4574;51.072;17.174;2023-08-30T00:40:57;99182.97;;;16.13;100.00
9077;BME280;4574;51.072;17.174;2023-08-30T00:43:25;99178.22;;;16.08;100.00
9077;BME280;4574;51.072;17.174;2023-08-30T00:45:54;99165.91;;;16.08;100.00
9077;BME280;4574;51.072;17.174;2023-08-30T00:48:22;99159.94;;;16.06;100.00
9077;BME280;4574;51.072;17.174;2023-08-30T00:50:51;99157.09;;;16.07;100.00
9077;BME280;4574;51.072;17.174;2023-08-30T00:53:20;99157.09;;;16.07;100.00
9077;BME280;4574;51.072;17.174;2023-08-30T00:55:50;99167.56;;;16.15;100.00
9077;BME280;4574;51.072;17.174;2023-08-30T00:58:18;99160.75;;;16.19;100.00
9077;BME280;4574;51.072;17.174;2023-08-30T01:00:47;99164.03;;;16.21;100.00
9077;BME280;4574;51.072;17.174;2023-08-30T01:03:16;99154.19;;;16.15;100.00
9077;BME280;4574;51.072;17.174;2023-08-30T01:05:45;99156.25;;;16.19;100.00
9077;BME280;4574;51.072;17.174;2023-08-30T01:08:13;99163.63;;;16.24;100.00
9077;BME280;4574;51.072;17.174;2023-08-30T01:10:50;99170.63;;;16.25;100.00
9077;BME280;4574;51.072;17.174;2023-08-30T01:13:21;99168.97;;;16.24;100.00
9077;BME280;4574;51.072;17.174;2023-08-30T01:15:51;99171.44;;;16.25;100.00
9077;BME280;4574;51.072;17.174;2023-08-30T01:18:22;99174.13;;;16.25;100.00
9077;BME280;4574;51.072;17.174;2023-08-30T01:20:55;99179.25;;;16.27;100.00
9077;BME280;4574;51.072;17.174;2023-08-30T01:23:39;99179.84;;;16.29;100.00
9077;BME280;4574;51.072;17.174;2023-08-30T01:26:13;99179.66;;;16.30;100.00
9077;BME280;4574;51.072;17.174;2023-08-30T01:28:44;99182.75;;;16.27;100.00
9077;BME280;4574;51.072;17.174;2023-08-30T01:31:13;99193.22;;;16.29;100.00
9077;BME280;4574;51.072;17.174;2023-08-30T01:33:43;99187.88;;;16.29;100.00
9077;BME280;4574;51.072;17.174;2023-08-30T01:36:13;99188.09;;;16.21;100.00
9077;BME280;4574;51.072;17.174;2023-08-30T01:38:41;99195.69;;;16.24;100.00
9077;BME280;4574;51.072;17.174;2023-08-30T01:41:11;99187.06;;;16.22;100.00
9077;BME280;4574;51.072;17.174;2023-08-30T01:43:40;99175.97;;;16.18;100.00
9077;BME280;4574;51.072;17.174;2023-08-30T01:46:11;99181.72;;;16.22;100.00
9077;BME280;4574;51.072;17.174;2023-08-30T01:48:40;99176.19;;;16.23;100.00
9077;BME280;4574;51.072;17.174;2023-08-30T01:51:10;99177.59;;;16.26;100.00
9077;BME280;4574;51.072;17.174;2023-08-30T01:53:38;99182.75;;;16.27;100.00
9077;BME280;4574;51.072;17.174;2023-08-30T01:56:07;99182.53;;;16.29;100.00
9077;BME280;4574;51.072;17.174;2023-08-30T01:58:36;99176.38;;;16.28;100.00
9077;BME280;4574;51.072;17.174;2023-08-30T02:01:04;99174.50;;;16.29;100.00
9077;BME280;4574;51.072;17.174;2023-08-30T02:03:35;99171.84;;;16.29;100.00
9077;BME280;4574;51.072;17.174;2023-08-30T02:06:07;99168.56;;;16.27;100.00
9077;BME280;4574;51.072;17.174;2023-08-30T02:08:41;99176.19;;;16.23;100.00
9077;BME280;4574;51.072;17.174;2023-08-30T02:11:15;99177.41;;;16.21;100.00
9077;BME280;4574;51.072;17.174;2023-08-30T02:13:46;99177.84;;;16.05;100.00
9077;BME280;4574;51.072;17.174;2023-08-30T02:16:17;99179.28;;;16.01;100.00
9077;BME280;4574;51.072;17.174;2023-08-30T02:18:48;99173.50;;;15.98;100.00
9077;BME280;4574;51.072;17.174;2023-08-30T02:21:17;99179.28;;;16.01;100.00
9077;BME280;4574;51.072;17.174;2023-08-30T02:23:49;99169.41;;;15.95;100.00
9077;BME280;4574;51.072;17.174;2023-08-30T02:26:19;99163.25;;;15.88;100.00
9077;BME280;4574;51.072;17.174;2023-08-30T02:28:48;99160.59;;;15.88;100.00
9077;BME280;4574;51.072;17.174;2023-08-30T02:31:17;99150.31;;;15.85;100.00
9077;BME280;4574;51.072;17.174;2023-08-30T02:33:47;99155.47;;;15.80;100.00
9077;BME280;4574;51.072;17.174;2023-08-30T02:36:16;99156.50;;;15.79;100.00
9077;BME280;4574;51.072;17.174;2023-08-30T02:38:44;99155.88;;;15.77;100.00
9077;BME280;4574;51.072;17.174;2023-08-30T02:41:13;99153.00;;;15.72;100.00
9077;BME280;4574;51.072;17.174;2023-08-30T02:43:41;99148.88;;;15.70;100.00
9077;BME280;4574;51.072;17.174;2023-08-30T02:46:10;99153.81;;;15.73;100.00
9077;BME280;4574;51.072;17.174;2023-08-30T02:48:38;99147.25;;;15.75;100.00
9077;BME280;4574;51.072;17.174;2023-08-30T02:51:08;99140.25;;;15.68;100.00
9077;BME280;4574;51.072;17.174;2023-08-30T02:53:37;99141.09;;;15.68;100.00
9077;BME280;4574;51.072;17.174;2023-08-30T02:56:05;99137.81;;;15.66;100.00
9077;BME280;4574;51.072;17.174;2023-08-30T02:58:34;99138.22;;;15.63;100.00
9077;BME280;4574;51.072;17.174;2023-08-30T03:01:02;99139.03;;;15.57;100.00
9077;BME280;4574;51.072;17.174;2023-08-30T03:03:31;99133.28;;;15.60;100.00
9077;BME280;4574;51.072;17.174;2023-08-30T03:06:01;99136.16;;;15.59;100.00
9077;BME280;4574;51.072;17.174;2023-08-30T03:08:31;99129.59;;;15.55;100.00
9077;BME280;4574;51.072;17.174;2023-08-30T03:11:08;99138.22;;;15.63;100.00
9077;BME280;4574;51.072;17.174;2023-08-30T03:13:36;99136.56;;;15.69;100.00
9077;BME280;4574;51.072;17.174;2023-08-30T03:16:10;99137.41;;;15.69;100.00
9077;BME280;4574;51.072;17.174;2023-08-30T03:18:39;99136.16;;;15.65;100.00
9077;BME280;4574;51.072;17.174;2023-08-30T03:21:09;99138.63;;;15.60;100.00
9077;BME280;4574;51.072;17.174;2023-08-30T03:23:39;99144.59;;;15.62;100.00
9077;BME280;4574;51.072;17.174;2023-08-30T03:26:08;99147.66;;;15.59;100.00
9077;BME280;4574;51.072;17.174;2023-08-30T03:28:37;99155.66;;;15.66;100.00
9077;BME280;4574;51.072;17.174;2023-08-30T03:31:13;99150.34;;;15.72;100.00
9077;BME280;4574;51.072;17.174;2023-08-30T03:33:42;99148.69;;;15.71;100.00
9077;BME280;4574;51.072;17.174;2023-08-30T03:36:13;99146.03;;;15.71;100.00
9077;BME280;4574;51.072;17.174;2023-08-30T03:38:44;99149.91;;;15.75;100.00
9077;BME280;4574;51.072;17.174;2023-08-30T03:41:13;99141.06;;;15.75;100.00
9077;BME280;4574;51.072;17.174;2023-08-30T03:43:42;99143.97;;;15.73;100.00
9077;BME280;4574;51.072;17.174;2023-08-30T03:46:10;99141.50;;;15.72;100.00
9077;BME280;4574;51.072;17.174;2023-08-30T03:48:39;99149.09;;;15.75;100.00
9077;BME280;4574;51.072;17.174;2023-08-30T03:51:08;99150.72;;;15.76;100.00
9077;BME280;4574;51.072;17.174;2023-08-30T03:53:37;99146.22;;;15.63;100.00
9077;BME280;4574;51.072;17.174;2023-08-30T03:56:07;99158.72;;;15.76;100.00
9077;BME280;4574;51.072;17.174;2023-08-30T03:58:35;99164.91;;;15.76;100.00
9077;BME280;4574;51.072;17.174;2023-08-30T04:01:04;99159.56;;;15.76;100.00
9077;BME280;4574;51.072;17.174;2023-08-30T04:03:35;99164.09;;;15.82;100.00
9077;BME280;4574;51.072;17.174;2023-08-30T04:06:03;99151.53;;;15.83;100.00
9077;BME280;4574;51.072;17.174;2023-08-30T04:08:32;99143.94;;;15.80;100.00
9077;BME280;4574;51.072;17.174;2023-08-30T04:11:02;99149.69;;;15.77;100.00
9077;BME280;4574;51.072;17.174;2023-08-30T04:13:32;99155.88;;;15.77;100.00
9077;BME280;4574;51.072;17.174;2023-08-30T04:16:02;99158.13;;;15.80;100.00
9077;BME280;4574;51.072;17.174;2023-08-30T04:18:31;99159.16;;;15.66;100.00
9077;BME280;4574;51.072;17.174;2023-08-30T04:21:00;99155.84;;;15.71;100.00
9077;BME280;4574;51.072;17.174;2023-08-30T04:23:29;99157.94;;;15.75;100.00
9077;BME280;4574;51.072;17.174;2023-08-30T04:25:58;99160.38;;;15.70;100.00
9077;BME280;4574;51.072;17.174;2023-08-30T04:28:26;99158.34;;;15.72;100.00
9077;BME280;4574;51.072;17.174;2023-08-30T04:30:56;99169.00;;;15.72;100.00
9077;BME280;4574;51.072;17.174;2023-08-30T04:33:26;99160.16;;;15.72;100.00
9077;BME280;4574;51.072;17.174;2023-08-30T04:35:54;99153.00;;;15.72;100.00
9077;BME280;4574;51.072;17.174;2023-08-30T04:38:23;99158.94;;;15.74;100.00
9077;BME280;4574;51.072;17.174;2023-08-30T04:40:57;99161.81;;;15.66;100.00
9077;BME280;4574;51.072;17.174;2023-08-30T04:43:26;99165.50;;;15.65;100.00
9077;BME280;4574;51.072;17.174;2023-08-30T04:45:55;99156.91;;;15.63;100.00
9077;BME280;4574;51.072;17.174;2023-08-30T04:48:24;99165.28;;;15.67;100.00
9077;BME280;4574;51.072;17.174;2023-08-30T04:51:00;99151.34;;;15.65;100.00
9077;BME280;4574;51.072;17.174;2023-08-30T04:53:30;99153.19;;;15.64;100.00
9077;BME280;4574;51.072;17.174;2023-08-30T04:55:59;99152.19;;;15.65;100.00
9077;BME280;4574;51.072;17.174;2023-08-30T04:58:27;99153.81;;;15.66;100.00
9077;BME280;4574;51.072;17.174;2023-08-30T05:00:56;99158.94;;;15.68;100.00
9077;BME280;4574;51.072;17.174;2023-08-30T05:03:26;99164.28;;;15.68;100.00
9077;BME280;4574;51.072;17.174;2023-08-30T05:05:58;99159.78;;;15.68;100.00
9077;BME280;4574;51.072;17.174;2023-08-30T05:08:27;99145.19;;;15.64;100.00
9077;BME280;4574;51.072;17.174;2023-08-30T05:10:55;99149.72;;;15.57;100.00
9077;BME280;4574;51.072;17.174;2023-08-30T05:13:24;99149.09;;;15.55;100.00
9077;BME280;4574;51.072;17.174;2023-08-30T05:15:53;99147.22;;;15.56;100.00
9077;BME280;4574;51.072;17.174;2023-08-30T05:18:21;99150.75;;;15.56;100.00
9077;BME280;4574;51.072;17.174;2023-08-30T05:20:53;99155.44;;;15.54;100.00
9077;BME280;4574;51.072;17.174;2023-08-30T05:23:21;99149.28;;;15.54;100.00
9077;BME280;4574;51.072;17.174;2023-08-30T05:25:50;99143.53;;;15.50;100.00
9077;BME280;4574;51.072;17.174;2023-08-30T05:28:18;99136.78;;;15.54;100.00
9077;BME280;4574;51.072;17.174;2023-08-30T05:30:47;99151.13;;;15.60;100.00
9077;BME280;4574;51.072;17.174;2023-08-30T05:33:15;99142.94;;;15.61;100.00
9077;BME280;4574;51.072;17.174;2023-08-30T05:35:44;99143.94;;;15.67;100.00
9077;BME280;4574;51.072;17.174;2023-08-30T05:38:13;99144.38;;;15.70;100.00
9077;BME280;4574;51.072;17.174;2023-08-30T05:40:42;99141.06;;;15.75;100.00
9077;BME280;4574;51.072;17.174;2023-08-30T05:43:11;99150.72;;;15.76;100.00
9077;BME280;4574;51.072;17.174;2023-08-30T05:45:40;99150.53;;;15.77;100.00
9077;BME280;4574;51.072;17.174;2023-08-30T05:48:09;99151.56;;;15.76;100.00
9077;BME280;4574;51.072;17.174;2023-08-30T05:50:38;99151.34;;;15.71;100.00
9077;BME280;4574;51.072;17.174;2023-08-30T05:53:07;99154.22;;;15.76;100.00
9077;BME280;4574;51.072;17.174;2023-08-30T05:55:37;99156.06;;;15.76;100.00
9077;BME280;4574;51.072;17.174;2023-08-30T05:58:06;99157.28;;;15.67;100.00
9077;BME280;4574;51.072;17.174;2023-08-30T06:00:35;99162.84;;;15.72;100.00
9077;BME280;4574;51.072;17.174;2023-08-30T06:03:03;99164.47;;;15.73;100.00
9077;BME280;4574;51.072;17.174;2023-08-30T06:05:33;99165.72;;;15.77;100.00
9077;BME280;4574;51.072;17.174;2023-08-30T06:08:02;99149.91;;;15.75;100.00
9077;BME280;4574;51.072;17.174;2023-08-30T06:10:31;99160.81;;;15.80;100.00
9077;BME280;4574;51.072;17.174;2023-08-30T06:13:01;99167.38;;;15.84;100.00
9077;BME280;4574;51.072;17.174;2023-08-30T06:15:29;99169.63;;;15.87;100.00
9077;BME280;4574;51.072;17.174;2023-08-30T06:17:58;99175.34;;;15.91;100.00
9077;BME280;4574;51.072;17.174;2023-08-30T06:20:26;99179.06;;;15.90;100.00
9077;BME280;4574;51.072;17.174;2023-08-30T06:22:57;99175.56;;;15.89;100.00
9077;BME280;4574;51.072;17.174;2023-08-30T06:25:26;99177.22;;;15.90;100.00
9077;BME280;4574;51.072;17.174;2023-08-30T06:27:56;99175.97;;;15.93;100.00
9077;BME280;4574;51.072;17.174;2023-08-30T06:30:27;99180.28;;;15.94;100.00
9077;BME280;4574;51.072;17.174;2023-08-30T06:32:56;99176.41;;;15.96;100.00
9077;BME280;4574;51.072;17.174;2023-08-30T06:35:25;99183.78;;;15.94;100.00
9077;BME280;4574;51.072;17.174;2023-08-30T06:37:53;99186.47;;;15.94;100.00
9077;BME280;4574;51.072;17.174;2023-08-30T06:40:22;99189.75;;;15.96;100.00
9077;BME280;4574;51.072;17.174;2023-08-30T06:42:51;99198.56;;;16.03;100.00
9077;BME280;4574;51.072;17.174;2023-08-30T06:45:19;99194.47;;;16.07;100.00
9077;BME280;4574;51.072;17.174;2023-08-30T06:47:49;99196.09;;;16.08;100.00
9077;BME280;4574;51.072;17.174;2023-08-30T06:50:19;99196.91;;;16.15;100.00
9077;BME280;4574;51.072;17.174;2023-08-30T06:52:47;99200.63;;;16.40;100.00
9077;BME280;4574;51.072;17.174;2023-08-30T06:55:16;99202.03;;;16.49;100.00
9077;BME280;4574;51.072;17.174;2023-08-30T06:57:48;99198.94;;;16.58;100.00
9077;BME280;4574;51.072;17.174;2023-08-30T07:00:18;99199.75;;;16.59;100.00
9077;BME280;4574;51.072;17.174;2023-08-30T07:02:47;99202.19;;;16.67;100.00
9077;BME280;4574;51.072;17.174;2023-08-30T07:05:17;99206.28;;;16.76;100.00
9077;BME280;4574;51.072;17.174;2023-08-30T07:07:45;99207.50;;;16.86;100.00
9077;BME280;4574;51.072;17.174;2023-08-30T07:10:14;99207.06;;;16.89;100.00
9077;BME280;4574;51.072;17.174;2023-08-30T07:12:43;99208.91;;;16.89;100.00
9077;BME280;4574;51.072;17.174;2023-08-30T07:15:13;99205.81;;;16.92;100.00
9077;BME280;4574;51.072;17.174;2023-08-30T07:17:43;99211.59;;;16.89;100.00
9077;BME280;4574;51.072;17.174;2023-08-30T07:20:22;99218.56;;;16.90;100.00
9077;BME280;4574;51.072;17.174;2023-08-30T07:22:50;99214.88;;;16.91;100.00
9077;BME280;4574;51.072;17.174;2023-08-30T07:25:19;99214.84;;;16.97;100.00
9077;BME280;4574;51.072;17.174;2023-08-30T07:27:47;99214.47;;;16.87;100.00
9077;BME280;4574;51.072;17.174;2023-08-30T07:30:16;99206.66;;;16.86;100.00
9077;BME280;4574;51.072;17.174;2023-08-30T07:32:44;99217.16;;;16.81;100.00
9077;BME280;4574;51.072;17.174;2023-08-30T07:35:13;99226.16;;;16.93;100.00
9077;BME280;4574;51.072;17.174;2023-08-30T07:37:43;99222.03;;;16.97;100.00
9077;BME280;4574;51.072;17.174;2023-08-30T07:40:11;99226.16;;;16.93;100.00
9077;BME280;4574;51.072;17.174;2023-08-30T07:42:43;99218.50;;;17.16;100.00
9077;BME280;4574;51.072;17.174;2023-08-30T07:45:12;99228.41;;;16.96;100.00
9077;BME280;4574;51.072;17.174;2023-08-30T07:47:41;99225.78;;;16.89;100.00
9077;BME280;4574;51.072;17.174;2023-08-30T07:50:09;99230.91;;;16.91;100.00
9077;BME280;4574;51.072;17.174;2023-08-30T07:52:38;99213.88;;;16.79;100.00
9077;BME280;4574;51.072;17.174;2023-08-30T07:55:14;99236.69;;;16.88;100.00
9077;BME280;4574;51.072;17.174;2023-08-30T07:57:43;99229.50;;;16.82;100.00
9077;BME280;4574;51.072;17.174;2023-08-30T08:00:12;99210.81;;;16.69;100.00
9077;BME280;4574;51.072;17.174;2023-08-30T08:02:41;99218.66;;;16.70;100.00
9077;BME280;4574;51.072;17.174;2023-08-30T08:05:09;99221.13;;;16.59;100.00
9077;BME280;4574;51.072;17.174;2023-08-30T08:07:38;99228.53;;;16.57;100.00
9077;BME280;4574;51.072;17.174;2023-08-30T08:10:08;99222.38;;;16.56;100.00
9077;BME280;4574;51.072;17.174;2023-08-30T08:12:38;99226.28;;;16.54;100.00
9077;BME280;4574;51.072;17.174;2023-08-30T08:15:07;99232.66;;;16.40;100.00
9077;BME280;4574;51.072;17.174;2023-08-30T08:17:35;99233.28;;;16.29;100.00
9077;BME280;4574;51.072;17.174;2023-08-30T08:20:05;99233.09;;;16.37;100.00
9077;BME280;4574;51.072;17.174;2023-08-30T08:22:33;99227.75;;;16.43;100.00
9077;BME280;4574;51.072;17.174;2023-08-30T08:25:02;99225.66;;;16.52;100.00
9077;BME280;4574;51.072;17.174;2023-08-30T08:27:31;99228.13;;;16.60;100.00
9077;BME280;4574;51.072;17.174;2023-08-30T08:30:01;99234.28;;;16.54;100.00
9077;BME280;4574;51.072;17.174;2023-08-30T08:32:31;99245.41;;;16.51;100.00
9077;BME280;4574;51.072;17.174;2023-08-30T08:35:00;99237.19;;;16.46;100.00
9077;BME280;4574;51.072;17.174;2023-08-30T08:37:29;99243.38;;;16.46;100.00
9077;BME280;4574;51.072;17.174;2023-08-30T08:39:58;99241.31;;;16.42;100.00
9077;BME280;4574;51.072;17.174;2023-08-30T08:42:26;99237.59;;;16.43;100.00
9077;BME280;4574;51.072;17.174;2023-08-30T08:44:57;99246.03;;;16.40;100.00
9077;BME280;4574;51.072;17.174;2023-08-30T08:47:29;99256.72;;;16.46;100.00
9077;BME280;4574;51.072;17.174;2023-08-30T08:49:59;99256.50;;;16.48;100.00
9077;BME280;4574;51.072;17.174;2023-08-30T08:52:29;99259.41;;;16.46;100.00
9077;BME280;4574;51.072;17.174;2023-08-30T08:55:10;99264.75;;;16.46;100.00
9077;BME280;4574;51.072;17.174;2023-08-30T08:57:39;99276.84;;;16.36;100.00
9077;BME280;4574;51.072;17.174;2023-08-30T09:00:10;99268.03;;;16.35;100.00
9077;BME280;4574;51.072;17.174;2023-08-30T09:02:40;99262.69;;;16.35;100.00
9077;BME280;4574;51.072;17.174;2023-08-30T09:05:10;99257.72;;;16.26;100.00
9077;BME280;4574;51.072;17.174;2023-08-30T09:07:39;99276.84;;;16.36;100.00
9077;BME280;4574;51.072;17.174;2023-08-30T09:10:08;99277.88;;;16.35;100.00
9077;BME280;4574;51.072;17.174;2023-08-30T09:12:37;99280.56;;;16.35;100.00
9077;BME280;4574;51.072;17.174;2023-08-30T09:15:06;99275.41;;;16.40;100.00
9077;BME280;4574;51.072;17.174;2023-08-30T09:17:38;99279.31;;;16.44;100.00
9077;BME280;4574;51.072;17.174;2023-08-30T09:20:12;99276.66;;;16.50;100.00
9077;BME280;4574;51.072;17.174;2023-08-30T09:22:42;99277.03;;;16.54;100.00
9077;BME280;4574;51.072;17.174;2023-08-30T09:25:22;99277.06;;;16.47;100.00
9077;BME280;4574;51.072;17.174;2023-08-30T09:27:51;99274.16;;;16.49;100.00
9077;BME280;4574;51.072;17.174;2023-08-30T09:30:21;99276.22;;;16.47;100.00
9077;BME280;4574;51.072;17.174;2023-08-30T09:32:50;99271.28;;;16.44;100.00
9077;BME280;4574;51.072;17.174;2023-08-30T09:35:20;99274.19;;;16.42;100.00
9077;BME280;4574;51.072;17.174;2023-08-30T09:37:49;99273.56;;;16.40;100.00
9077;BME280;4574;51.072;17.174;2023-08-30T09:40:18;99259.81;;;16.37;100.00
9077;BME280;4574;51.072;17.174;2023-08-30T09:42:48;99265.34;;;16.42;100.00
9077;BME280;4574;51.072;17.174;2023-08-30T09:45:33;99261.22;;;16.46;100.00
9077;BME280;4574;51.072;17.174;2023-08-30T09:48:01;99267.38;;;16.53;100.00
9077;BME280;4574;51.072;17.174;2023-08-30T09:50:33;99264.50;;;16.61;100.00
9077;BME280;4574;51.072;17.174;2023-08-30T09:53:06;99266.13;;;16.62;100.00
9077;BME280;4574;51.072;17.174;2023-08-30T09:55:35;99263.06;;;16.65;100.00
9077;BME280;4574;51.072;17.174;2023-08-30T09:58:04;99263.06;;;16.65;100.00
9077;BME280;4574;51.072;17.174;2023-08-30T10:00:33;99268.63;;;16.57;100.00
9077;BME280;4574;51.072;17.174;2023-08-30T10:03:02;99270.06;;;16.53;100.00
9077;BME280;4574;51.072;17.174;2023-08-30T10:05:35;99263.47;;;16.49;100.00
9077;BME280;4574;51.072;17.174;2023-08-30T10:08:06;99258.97;;;16.43;100.00
9077;BME280;4574;51.072;17.174;2023-08-30T10:10:36;99266.78;;;16.51;100.00
9077;BME280;4574;51.072;17.174;2023-08-30T10:13:06;99274.78;;;16.51;100.00
9077;BME280;4574;51.072;17.174;2023-08-30T10:15:41;99274.38;;;16.54;100.00
9077;BME280;4574;51.072;17.174;2023-08-30T10:18:15;99269.66;;;16.49;100.00
9077;BME280;4574;51.072;17.174;2023-08-30T10:20:46;99273.34;;;16.42;100.00
9077;BME280;4574;51.072;17.174;2023-08-30T10:23:16;99273.34;;;16.42;100.00
9077;BME280;4574;51.072;17.174;2023-08-30T10:25:46;99274.19;;;16.42;100.00
9077;BME280;4574;51.072;17.174;2023-08-30T10:28:18;99268.81;;;16.49;100.00
9077;BME280;4574;51.072;17.174;2023-08-30T10:30:48;99270.47;;;16.56;100.00
9077;BME280;4574;51.072;17.174;2023-08-30T10:33:16;99272.50;;;16.74;100.00
9077;BME280;4574;51.072;17.174;2023-08-30T10:35:50;99270.41;;;16.89;100.00
9077;BME280;4574;51.072;17.174;2023-08-30T10:38:25;99265.03;;;17.02;100.00
9077;BME280;4574;51.072;17.174;2023-08-30T10:40:55;99260.50;;;16.96;100.00
9077;BME280;4574;51.072;17.174;2023-08-30T10:43:30;99272.84;;;16.97;100.00
9077;BME280;4574;51.072;17.174;2023-08-30T10:46:01;99246.16;;;16.84;100.00
9077;BME280;4574;51.072;17.174;2023-08-30T10:48:37;99274.53;;;16.91;100.00
9077;BME280;4574;51.072;17.174;2023-08-30T10:51:20;99274.09;;;16.88;100.00
9077;BME280;4574;51.072;17.174;2023-08-30T10:53:56;99271.66;;;16.86;100.00
9077;BME280;4574;51.072;17.174;2023-08-30T10:56:29;99272.03;;;16.90;100.00
9077;BME280;4574;51.072;17.174;2023-08-30T10:58:58;99273.69;;;16.91;100.00
9077;BME280;4574;51.072;17.174;2023-08-30T11:01:27;99268.75;;;16.94;100.00
9077;BME280;4574;51.072;17.174;2023-08-30T11:03:56;99260.97;;;16.86;100.00
9077;BME280;4574;51.072;17.174;2023-08-30T11:06:42;99281.47;;;16.99;100.00
9077;BME280;4574;51.072;17.174;2023-08-30T11:09:13;99282.31;;;17.06;100.00
9077;BME280;4574;51.072;17.174;2023-08-30T11:11:45;99278.19;;;17.10;100.00
9077;BME280;4574;51.072;17.174;2023-08-30T11:14:14;99275.31;;;17.05;100.00
9077;BME280;4574;51.072;17.174;2023-08-30T11:16:43;99276.13;;;17.12;100.00
9077;BME280;4574;51.072;17.174;2023-08-30T11:19:12;99277.53;;;17.14;100.00
9077;BME280;4574;51.072;17.174;2023-08-30T11:21:44;99282.25;;;17.19;100.00
9077;BME280;4574;51.072;17.174;2023-08-30T11:24:13;99275.66;;;17.28;100.00
9077;BME280;4574;51.072;17.174;2023-08-30T11:26:43;99282.22;;;17.32;100.00
9077;BME280;4574;51.072;17.174;2023-08-30T11:29:11;99278.50;;;17.26;100.00
9077;BME280;4574;51.072;17.174;2023-08-30T11:31:40;99271.16;;;17.15;100.00
9077;BME280;4574;51.072;17.174;2023-08-30T11:34:12;99273.44;;;17.05;100.00
9077;BME280;4574;51.072;17.174;2023-08-30T11:36:42;99278.59;;;17.07;100.00
9077;BME280;4574;51.072;17.174;2023-08-30T11:39:11;99273.03;;;17.08;100.00
9077;BME280;4574;51.072;17.174;2023-08-30T11:41:39;99270.53;;;17.13;100.00
9077;BME280;4574;51.072;17.174;2023-08-30T11:44:08;99270.31;;;17.21;100.00
9077;BME280;4574;51.072;17.174;2023-08-30T11:46:37;99271.50;;;17.32;100.00
9077;BME280;4574;51.072;17.174;2023-08-30T11:49:05;99277.69;;;17.39;100.00
9077;BME280;4574;51.072;17.174;2023-08-30T11:51:34;99267.78;;;17.46;100.00
9077;BME280;4574;51.072;17.174;2023-08-30T11:54:04;99269.16;;;17.54;100.00
9077;BME280;4574;51.072;17.174;2023-08-30T11:56:35;99272.19;;;17.64;100.00
9077;BME280;4574;51.072;17.174;2023-08-30T11:59:04;99273.59;;;17.73;100.00
9077;BME280;4574;51.072;17.174;2023-08-30T12:01:33;99275.78;;;17.83;100.00
9077;BME280;4574;51.072;17.174;2023-08-30T12:04:09;99270.03;;;17.79;100.00
9077;BME280;4574;51.072;17.174;2023-08-30T12:06:37;99266.94;;;17.82;100.00
9077;BME280;4574;51.072;17.174;2023-08-30T12:09:11;99265.06;;;17.83;100.00
9077;BME280;4574;51.072;17.174;2023-08-30T12:11:40;99270.25;;;17.78;100.00
9077;BME280;4574;51.072;17.174;2023-08-30T12:14:09;99264.69;;;17.79;100.00
9077;BME280;4574;51.072;17.174;2023-08-30T12:16:37;99264.69;;;17.79;100.00
9077;BME280;4574;51.072;17.174;2023-08-30T12:19:09;99263.84;;;17.79;100.00
9077;BME280;4574;51.072;17.174;2023-08-30T12:21:42;99267.72;;;17.89;100.00
9077;BME280;4574;51.072;17.174;2023-08-30T12:24:12;99260.84;;;18.00;100.00
9077;BME280;4574;51.072;17.174;2023-08-30T12:26:40;99252.16;;;18.04;100.00
9077;BME280;4574;51.072;17.174;2023-08-30T12:29:09;99255.00;;;18.09;100.00
9077;BME280;4574;51.072;17.174;2023-08-30T12:31:37;99255.50;;;18.00;100.00
9077;BME280;4574;51.072;17.174;2023-08-30T12:34:06;99258.19;;;18.00;100.00
9077;BME280;4574;51.072;17.174;2023-08-30T12:36:34;99256.31;;;18.00;100.00
9077;BME280;4574;51.072;17.174;2023-08-30T12:39:03;99251.81;;;17.94;100.00
9077;BME280;4574;51.072;17.174;2023-08-30T12:41:33;99259.91;;;17.88;100.00
9077;BME280;4574;51.072;17.174;2023-08-30T12:44:02;99247.78;;;17.79;100.00
9077;BME280;4574;51.072;17.174;2023-08-30T12:46:31;99255.28;;;17.70;100.00
9077;BME280;4574;51.072;17.174;2023-08-30T12:48:59;99264.53;;;17.68;100.00
9077;BME280;4574;51.072;17.174;2023-08-30T12:51:28;99263.75;;;17.67;100.00
9077;BME280;4574;51.072;17.174;2023-08-30T12:53:57;99260.88;;;17.62;100.00
9077;BME280;4574;51.072;17.174;2023-08-30T12:56:26;99267.44;;;17.66;100.00
9077;BME280;4574;51.072;17.174;2023-08-30T12:58:56;99260.22;;;17.67;100.00
9077;BME280;4574;51.072;17.174;2023-08-30T13:01:24;99250.72;;;17.71;100.00
9077;BME280;4574;51.072;17.174;2023-08-30T13:03:53;99255.97;;;17.90;100.00
9077;BME280;4574;51.072;17.174;2023-08-30T13:06:22;99250.69;;;18.08;100.00
9077;BME280;4574;51.072;17.174;2023-08-30T13:08:50;99250.34;;;18.29;100.00
9077;BME280;4574;51.072;17.174;2023-08-30T13:11:19;99242.03;;;18.37;100.00
9077;BME280;4574;51.072;17.174;2023-08-30T13:13:47;99229.97;;;18.22;100.00